sensor_id;sensor_type;location;lat;lon;timestamp;pressure;altitude;pressure_sealevel;temperature;humidity
78986;BME280;68384;55.750;48.746;2024-01-15T00:01:02;98773.16;;;-15.03;64.04
78986;BME280;68384;55.750;48.746;2024-01-15T00:02:04;98777.41;;;-15.02;63.30
78986;BME280;68384;55.750;48.746;2024-01-15T00:03:08;98771.41;;;-15.06;63.89
78986;BME280;68384;55.750;48.746;2024-01-15T00:04:10;98767.25;;;-15.02;64.23
78986;BME280;68384;55.750;48.746;2024-01-15T00:05:12;98770.66;;;-15.02;63.90
78986;BME280;68384;55.750;48.746;2024-01-15T00:06:14;98757.13;;;-15.01;63.00
78986;BME280;68384;55.750;48.746;2024-01-15T00:07:17;98763.06;;;-15.00;63.45
78986;BME280;68384;55.750;48.746;2024-01-15T00:08:19;98764.81;;;-14.97;63.80
78986;BME280;68384;55.750;48.746;2024-01-15T00:09:21;98759.78;;;-14.96;63.39
78986;BME280;68384;55.750;48.746;2024-01-15T00:10:24;98752.16;;;-14.96;63.36
78986;BME280;68384;55.750;48.746;2024-01-15T00:11:26;98757.22;;;-14.96;64.10
78986;BME280;68384;55.750;48.746;2024-01-15T00:12:28;98755.63;;;-14.91;63.90
78986;BME280;68384;55.750;48.746;2024-01-15T00:13:30;98753.13;;;-14.89;62.54
78986;BME280;68384;55.750;48.746;2024-01-15T00:14:34;98765.84;;;-14.88;63.98
78986;BME280;68384;55.750;48.746;2024-01-15T00:15:36;98752.31;;;-14.87;63.10
78986;BME280;68384;55.750;48.746;2024-01-15T00:16:40;98752.41;;;-14.84;63.12
78986;BME280;68384;55.750;48.746;2024-01-15T00:17:42;98753.25;;;-14.83;64.01
78986;BME280;68384;55.750;48.746;2024-01-15T00:18:44;98749.03;;;-14.83;63.24
78986;BME280;68384;55.750;48.746;2024-01-15T00:19:47;98749.09;;;-14.80;63.59
78986;BME280;68384;55.750;48.746;2024-01-15T00:20:49;98748.25;;;-14.80;63.38
78986;BME280;68384;55.750;48.746;2024-01-15T00:21:51;98751.59;;;-14.81;62.97
78986;BME280;68384;55.750;48.746;2024-01-15T00:22:53;98743.97;;;-14.81;64.00
78986;BME280;68384;55.750;48.746;2024-01-15T00:23:56;98749.09;;;-14.80;63.23
78986;BME280;68384;55.750;48.746;2024-01-15T00:24:58;98746.53;;;-14.81;63.92
78986;BME280;68384;55.750;48.746;2024-01-15T00:26:00;98743.16;;;-14.80;63.99
78986;BME280;68384;55.750;48.746;2024-01-15T00:27:02;98746.56;;;-14.80;63.88
78986;BME280;68384;55.750;48.746;2024-01-15T00:28:05;98741.47;;;-14.80;63.90
78986;BME280;68384;55.750;48.746;2024-01-15T00:29:08;98738.94;;;-14.80;63.29
78986;BME280;68384;55.750;48.746;2024-01-15T00:30:11;98744.00;;;-14.80;63.85
78986;BME280;68384;55.750;48.746;2024-01-15T00:31:16;98737.22;;;-14.81;63.60
78986;BME280;68384;55.750;48.746;2024-01-15T00:32:19;98733.00;;;-14.80;63.81
78986;BME280;68384;55.750;48.746;2024-01-15T00:33:22;98734.66;;;-14.82;62.99
78986;BME280;68384;55.750;48.746;2024-01-15T00:34:24;98732.13;;;-14.81;62.83
78986;BME280;68384;55.750;48.746;2024-01-15T00:35:26;98739.78;;;-14.79;63.88
78986;BME280;68384;55.750;48.746;2024-01-15T00:36:28;98733.88;;;-14.78;63.84
78986;BME280;68384;55.750;48.746;2024-01-15T00:37:30;98746.59;;;-14.78;62.79
78986;BME280;68384;55.750;48.746;2024-01-15T00:38:33;98749.16;;;-14.77;63.25
78986;BME280;68384;55.750;48.746;2024-01-15T00:39:35;98739.03;;;-14.75;63.31
78986;BME280;68384;55.750;48.746;2024-01-15T00:40:37;98738.16;;;-14.77;64.29
78986;BME280;68384;55.750;48.746;2024-01-15T00:41:39;98744.97;;;-14.75;62.98
78986;BME280;68384;55.750;48.746;2024-01-15T00:42:41;98731.41;;;-14.75;63.53
78986;BME280;68384;55.750;48.746;2024-01-15T00:43:45;98726.38;;;-14.74;63.09
78986;BME280;68384;55.750;48.746;2024-01-15T00:44:48;98728.06;;;-14.73;63.72
78986;BME280;68384;55.750;48.746;2024-01-15T00:45:50;98719.59;;;-14.73;63.90
78986;BME280;68384;55.750;48.746;2024-01-15T00:46:52;98712.84;;;-14.71;63.43
78986;BME280;68384;55.750;48.746;2024-01-15T00:47:54;98704.34;;;-14.72;63.73
78986;BME280;68384;55.750;48.746;2024-01-15T00:48:58;98707.78;;;-14.70;63.14
78986;BME280;68384;55.750;48.746;2024-01-15T00:50:01;98696.75;;;-14.72;62.83
78986;BME280;68384;55.750;48.746;2024-01-15T00:51:05;98703.53;;;-14.71;63.25
78986;BME280;68384;55.750;48.746;2024-01-15T00:52:07;98711.22;;;-14.68;64.18
78986;BME280;68384;55.750;48.746;2024-01-15T00:53:09;98712.94;;;-14.67;64.28
78986;BME280;68384;55.750;48.746;2024-01-15T00:54:11;98711.25;;;-14.66;62.90
78986;BME280;68384;55.750;48.746;2024-01-15T00:55:14;98720.63;;;-14.63;63.37
78986;BME280;68384;55.750;48.746;2024-01-15T00:56:16;98714.72;;;-14.62;63.26
78986;BME280;68384;55.750;48.746;2024-01-15T00:57:18;98721.53;;;-14.60;63.16
78986;BME280;68384;55.750;48.746;2024-01-15T00:58:21;98736.81;;;-14.58;63.41
78986;BME280;68384;55.750;48.746;2024-01-15T00:59:23;98742.81;;;-14.55;63.57
78986;BME280;68384;55.750;48.746;2024-01-15T01:00:25;98738.59;;;-14.53;62.66
78986;BME280;68384;55.750;48.746;2024-01-15T01:01:28;98731.88;;;-14.51;62.85
78986;BME280;68384;55.750;48.746;2024-01-15T01:02:31;98732.78;;;-14.47;64.41
78986;BME280;68384;55.750;48.746;2024-01-15T01:03:33;98737.03;;;-14.46;63.40
78986;BME280;68384;55.750;48.746;2024-01-15T01:04:35;98740.50;;;-14.43;63.43
78986;BME280;68384;55.750;48.746;2024-01-15T01:05:38;98733.72;;;-14.44;63.40
78986;BME280;68384;55.750;48.746;2024-01-15T01:06:40;98723.59;;;-14.41;62.95
78986;BME280;68384;55.750;48.746;2024-01-15T01:07:42;98726.16;;;-14.39;64.01
78986;BME280;68384;55.750;48.746;2024-01-15T01:08:44;98722.84;;;-14.37;62.24
78986;BME280;68384;55.750;48.746;2024-01-15T01:09:46;98718.56;;;-14.38;63.09
78986;BME280;68384;55.750;48.746;2024-01-15T01:10:50;98710.13;;;-14.37;63.57
78986;BME280;68384;55.750;48.746;2024-01-15T01:11:52;98712.66;;;-14.35;64.06
78986;BME280;68384;55.750;48.746;2024-01-15T01:12:54;98712.69;;;-14.34;63.32
78986;BME280;68384;55.750;48.746;2024-01-15T01:13:56;98706.81;;;-14.31;62.66
78986;BME280;68384;55.750;48.746;2024-01-15T01:14:59;98707.63;;;-14.32;62.33
78986;BME280;68384;55.750;48.746;2024-01-15T01:16:01;98709.41;;;-14.28;63.13
78986;BME280;68384;55.750;48.746;2024-01-15T01:17:03;98717.06;;;-14.26;63.65
78986;BME280;68384;55.750;48.746;2024-01-15T01:18:05;98710.34;;;-14.24;63.97
78986;BME280;68384;55.750;48.746;2024-01-15T01:19:08;98702.69;;;-14.24;62.79
78986;BME280;68384;55.750;48.746;2024-01-15T01:20:10;98713.69;;;-14.25;62.48
78986;BME280;68384;55.750;48.746;2024-01-15T01:21:15;98712.00;;;-14.25;63.99
78986;BME280;68384;55.750;48.746;2024-01-15T01:22:18;98703.47;;;-14.28;63.21
78986;BME280;68384;55.750;48.746;2024-01-15T01:23:21;98694.16;;;-14.28;63.56
78986;BME280;68384;55.750;48.746;2024-01-15T01:24:23;98698.41;;;-14.27;63.84
78986;BME280;68384;55.750;48.746;2024-01-15T01:25:26;98697.63;;;-14.24;64.08
78986;BME280;68384;55.750;48.746;2024-01-15T01:26:29;98684.03;;;-14.26;63.23
78986;BME280;68384;55.750;48.746;2024-01-15T01:27:31;98685.72;;;-14.27;63.22
78986;BME280;68384;55.750;48.746;2024-01-15T01:28:34;98681.41;;;-14.29;63.01
78986;BME280;68384;55.750;48.746;2024-01-15T01:29:36;98683.06;;;-14.32;63.78
78986;BME280;68384;55.750;48.746;2024-01-15T01:30:38;98684.72;;;-14.34;64.30
78986;BME280;68384;55.750;48.746;2024-01-15T01:31:44;98672.00;;;-14.35;64.84
78986;BME280;68384;55.750;48.746;2024-01-15T01:32:47;98691.47;;;-14.37;63.93
78986;BME280;68384;55.750;48.746;2024-01-15T01:33:49;98675.31;;;-14.41;63.90
78986;BME280;68384;55.750;48.746;2024-01-15T01:34:51;98676.94;;;-14.44;64.44
78986;BME280;68384;55.750;48.746;2024-01-15T01:35:54;98675.22;;;-14.45;65.18
78986;BME280;68384;55.750;48.746;2024-01-15T01:36:56;98675.16;;;-14.48;64.45
78986;BME280;68384;55.750;48.746;2024-01-15T01:37:58;98672.69;;;-14.45;64.67
78986;BME280;68384;55.750;48.746;2024-01-15T01:39:00;98676.06;;;-14.45;63.80
78986;BME280;68384;55.750;48.746;2024-01-15T01:40:02;98665.84;;;-14.48;65.52
78986;BME280;68384;55.750;48.746;2024-01-15T01:41:05;98665.00;;;-14.48;64.81
78986;BME280;68384;55.750;48.746;2024-01-15T01:42:07;98659.84;;;-14.51;65.07
78986;BME280;68384;55.750;48.746;2024-01-15T01:43:10;98651.41;;;-14.50;64.46
78986;BME280;68384;55.750;48.746;2024-01-15T01:44:12;98672.66;;;-14.47;65.90
78986;BME280;68384;55.750;48.746;2024-01-15T01:45:14;98668.38;;;-14.49;65.53
78986;BME280;68384;55.750;48.746;2024-01-15T01:46:17;98671.75;;;-14.49;65.18
78986;BME280;68384;55.750;48.746;2024-01-15T01:47:19;98678.50;;;-14.51;65.26
78986;BME280;68384;55.750;48.746;2024-01-15T01:48:22;98672.59;;;-14.50;65.36
78986;BME280;68384;55.750;48.746;2024-01-15T01:49:27;98670.06;;;-14.48;65.66
78986;BME280;68384;55.750;48.746;2024-01-15T01:50:30;98676.81;;;-14.50;64.66
78986;BME280;68384;55.750;48.746;2024-01-15T01:51:34;98673.41;;;-14.51;65.35
78986;BME280;68384;55.750;48.746;2024-01-15T01:52:38;98680.97;;;-14.54;65.12
78986;BME280;68384;55.750;48.746;2024-01-15T01:53:40;98680.16;;;-14.53;65.42
78986;BME280;68384;55.750;48.746;2024-01-15T01:54:43;98675.94;;;-14.52;64.94
78986;BME280;68384;55.750;48.746;2024-01-15T01:55:45;98676.81;;;-14.50;65.20
78986;BME280;68384;55.750;48.746;2024-01-15T01:56:50;98683.59;;;-14.49;65.83
78986;BME280;68384;55.750;48.746;2024-01-15T01:57:54;98678.53;;;-14.49;66.05
78986;BME280;68384;55.750;48.746;2024-01-15T01:58:57;98681.06;;;-14.49;64.98
78986;BME280;68384;55.750;48.746;2024-01-15T02:00:04;98684.50;;;-14.47;65.41
78986;BME280;68384;55.750;48.746;2024-01-15T02:01:12;98688.75;;;-14.46;64.28
78986;BME280;68384;55.750;48.746;2024-01-15T02:02:15;98689.56;;;-14.49;65.82
78986;BME280;68384;55.750;48.746;2024-01-15T02:03:17;98685.34;;;-14.47;64.72
78986;BME280;68384;55.750;48.746;2024-01-15T02:04:20;98691.34;;;-14.43;65.75
78986;BME280;68384;55.750;48.746;2024-01-15T02:05:24;98681.22;;;-14.42;64.49
78986;BME280;68384;55.750;48.746;2024-01-15T02:06:26;98684.59;;;-14.43;64.80
78986;BME280;68384;55.750;48.746;2024-01-15T02:07:29;98689.63;;;-14.44;64.37
78986;BME280;68384;55.750;48.746;2024-01-15T02:08:31;98678.63;;;-14.45;65.14
78986;BME280;68384;55.750;48.746;2024-01-15T02:09:33;98672.69;;;-14.45;65.64
78986;BME280;68384;55.750;48.746;2024-01-15T02:10:36;98682.00;;;-14.44;66.01
78986;BME280;68384;55.750;48.746;2024-01-15T02:11:38;98676.97;;;-14.43;64.92
78986;BME280;68384;55.750;48.746;2024-01-15T02:12:40;98677.88;;;-14.39;65.63
78986;BME280;68384;55.750;48.746;2024-01-15T02:13:44;98678.78;;;-14.37;65.19
78986;BME280;68384;55.750;48.746;2024-01-15T02:14:46;98679.63;;;-14.37;64.48
78986;BME280;68384;55.750;48.746;2024-01-15T02:15:48;98661.84;;;-14.37;65.72
78986;BME280;68384;55.750;48.746;2024-01-15T02:16:51;98665.19;;;-14.38;65.26
78986;BME280;68384;55.750;48.746;2024-01-15T02:18:03;98672.81;;;-14.38;65.71
78986;BME280;68384;55.750;48.746;2024-01-15T02:19:07;98675.34;;;-14.39;65.01
78986;BME280;68384;55.750;48.746;2024-01-15T02:20:09;98682.94;;;-14.41;66.02
78986;BME280;68384;55.750;48.746;2024-01-15T02:21:12;98684.59;;;-14.43;66.17
78986;BME280;68384;55.750;48.746;2024-01-15T02:22:14;98676.09;;;-14.43;64.85
78986;BME280;68384;55.750;48.746;2024-01-15T02:23:16;98672.75;;;-14.42;64.72
78986;BME280;68384;55.750;48.746;2024-01-15T02:24:18;98667.59;;;-14.45;65.67
78986;BME280;68384;55.750;48.746;2024-01-15T02:25:21;98668.47;;;-14.43;65.69
78986;BME280;68384;55.750;48.746;2024-01-15T02:26:23;98673.59;;;-14.42;65.36
78986;BME280;68384;55.750;48.746;2024-01-15T02:27:26;98667.66;;;-14.42;65.11
78986;BME280;68384;55.750;48.746;2024-01-15T02:28:28;98665.13;;;-14.41;65.64
78986;BME280;68384;55.750;48.746;2024-01-15T02:29:31;98664.25;;;-14.43;65.61
78986;BME280;68384;55.750;48.746;2024-01-15T02:30:37;98660.84;;;-14.43;65.30
78986;BME280;68384;55.750;48.746;2024-01-15T02:31:40;98667.59;;;-14.45;65.54
78986;BME280;68384;55.750;48.746;2024-01-15T02:32:42;98663.38;;;-14.45;65.23
78986;BME280;68384;55.750;48.746;2024-01-15T02:33:45;98670.13;;;-14.45;66.02
78986;BME280;68384;55.750;48.746;2024-01-15T02:34:50;98661.63;;;-14.47;65.63
78986;BME280;68384;55.750;48.746;2024-01-15T02:35:53;98658.28;;;-14.45;65.45
78986;BME280;68384;55.750;48.746;2024-01-15T02:36:55;98657.44;;;-14.45;66.42
78986;BME280;68384;55.750;48.746;2024-01-15T02:37:57;98654.06;;;-14.44;66.21
78986;BME280;68384;55.750;48.746;2024-01-15T02:38:59;98652.41;;;-14.42;65.02
78986;BME280;68384;55.750;48.746;2024-01-15T02:40:01;98647.31;;;-14.42;65.33
78986;BME280;68384;55.750;48.746;2024-01-15T02:41:04;98651.59;;;-14.40;66.99
78986;BME280;68384;55.750;48.746;2024-01-15T02:42:06;98648.25;;;-14.37;66.13
78986;BME280;68384;55.750;48.746;2024-01-15T02:43:08;98649.91;;;-14.39;65.37
78986;BME280;68384;55.750;48.746;2024-01-15T02:44:11;98652.50;;;-14.38;65.85
78986;BME280;68384;55.750;48.746;2024-01-15T02:45:13;98645.72;;;-14.37;66.15
78986;BME280;68384;55.750;48.746;2024-01-15T02:46:15;98650.81;;;-14.36;65.96
78986;BME280;68384;55.750;48.746;2024-01-15T02:47:18;98644.84;;;-14.39;65.60
78986;BME280;68384;55.750;48.746;2024-01-15T02:48:20;98646.50;;;-14.41;66.21
78986;BME280;68384;55.750;48.746;2024-01-15T02:49:22;98635.47;;;-14.42;67.07
78986;BME280;68384;55.750;48.746;2024-01-15T02:50:24;98638.88;;;-14.41;66.31
78986;BME280;68384;55.750;48.746;2024-01-15T02:51:26;98633.75;;;-14.43;66.28
78986;BME280;68384;55.750;48.746;2024-01-15T02:52:29;98641.38;;;-14.43;66.34
78986;BME280;68384;55.750;48.746;2024-01-15T02:53:31;98644.78;;;-14.42;67.09
78986;BME280;68384;55.750;48.746;2024-01-15T02:54:33;98637.16;;;-14.42;66.18
78986;BME280;68384;55.750;48.746;2024-01-15T02:55:35;98636.31;;;-14.41;66.26
78986;BME280;68384;55.750;48.746;2024-01-15T02:56:38;98632.84;;;-14.46;67.06
78986;BME280;68384;55.750;48.746;2024-01-15T02:57:40;98627.75;;;-14.46;65.74
78986;BME280;68384;55.750;48.746;2024-01-15T02:58:42;98635.34;;;-14.48;66.50
78986;BME280;68384;55.750;48.746;2024-01-15T02:59:44;98629.34;;;-14.51;67.33
78986;BME280;68384;55.750;48.746;2024-01-15T03:00:46;98623.44;;;-14.50;66.19
78986;BME280;68384;55.750;48.746;2024-01-15T03:01:48;98629.34;;;-14.51;66.33
78986;BME280;68384;55.750;48.746;2024-01-15T03:02:51;98636.09;;;-14.55;66.38
78986;BME280;68384;55.750;48.746;2024-01-15T03:03:53;98624.25;;;-14.54;66.46
78986;BME280;68384;55.750;48.746;2024-01-15T03:04:57;98627.50;;;-14.61;66.84
78986;BME280;68384;55.750;48.746;2024-01-15T03:06:01;98633.41;;;-14.62;66.92
78986;BME280;68384;55.750;48.746;2024-01-15T03:07:03;98630.00;;;-14.63;66.30
78986;BME280;68384;55.750;48.746;2024-01-15T03:08:05;98625.72;;;-14.66;65.84
78986;BME280;68384;55.750;48.746;2024-01-15T03:09:08;98629.16;;;-14.63;66.02
78986;BME280;68384;55.750;48.746;2024-01-15T03:10:10;98626.59;;;-14.65;66.94
78986;BME280;68384;55.750;48.746;2024-01-15T03:11:12;98627.50;;;-14.61;67.63
78986;BME280;68384;55.750;48.746;2024-01-15T03:12:14;98628.34;;;-14.62;66.68
78986;BME280;68384;55.750;48.746;2024-01-15T03:13:16;98624.97;;;-14.61;66.01
78986;BME280;68384;55.750;48.746;2024-01-15T03:14:18;98636.75;;;-14.65;66.00
78986;BME280;68384;55.750;48.746;2024-01-15T03:15:22;98629.97;;;-14.64;66.13
78986;BME280;68384;55.750;48.746;2024-01-15T03:16:24;98632.50;;;-14.66;66.04
78986;BME280;68384;55.750;48.746;2024-01-15T03:17:26;98635.00;;;-14.68;65.77
78986;BME280;68384;55.750;48.746;2024-01-15T03:18:28;98637.50;;;-14.69;67.15
78986;BME280;68384;55.750;48.746;2024-01-15T03:19:34;98634.19;;;-14.67;66.74
78986;BME280;68384;55.750;48.746;2024-01-15T03:20:37;98635.78;;;-14.72;66.16
78986;BME280;68384;55.750;48.746;2024-01-15T03:21:39;98637.50;;;-14.71;65.77
78986;BME280;68384;55.750;48.746;2024-01-15T03:22:41;98629.84;;;-14.74;65.89
78986;BME280;68384;55.750;48.746;2024-01-15T03:23:43;98633.13;;;-14.79;65.86
78986;BME280;68384;55.750;48.746;2024-01-15T03:24:45;98631.44;;;-14.79;66.11
78986;BME280;68384;55.750;48.746;2024-01-15T03:25:48;98626.25;;;-14.83;65.98
78986;BME280;68384;55.750;48.746;2024-01-15T03:26:51;98625.41;;;-14.84;66.80
78986;BME280;68384;55.750;48.746;2024-01-15T03:27:53;98617.69;;;-14.88;65.95
78986;BME280;68384;55.750;48.746;2024-01-15T03:28:55;98621.88;;;-14.90;66.37
78986;BME280;68384;55.750;48.746;2024-01-15T03:29:57;98626.97;;;-14.92;66.29
78986;BME280;68384;55.750;48.746;2024-01-15T03:30:59;98626.91;;;-14.95;65.97
78986;BME280;68384;55.750;48.746;2024-01-15T03:32:02;98621.75;;;-14.98;67.03
78986;BME280;68384;55.750;48.746;2024-01-15T03:33:04;98625.84;;;-15.05;67.58
78986;BME280;68384;55.750;48.746;2024-01-15T03:34:07;98628.34;;;-15.06;66.64
78986;BME280;68384;55.750;48.746;2024-01-15T03:35:09;98629.16;;;-15.09;66.45
78986;BME280;68384;55.750;48.746;2024-01-15T03:36:11;98627.44;;;-15.10;67.48
78986;BME280;68384;55.750;48.746;2024-01-15T03:37:13;98631.66;;;-15.12;66.85
78986;BME280;68384;55.750;48.746;2024-01-15T03:38:16;98642.59;;;-15.14;67.02
78986;BME280;68384;55.750;48.746;2024-01-15T03:39:18;98646.75;;;-15.18;66.34
78986;BME280;68384;55.750;48.746;2024-01-15T03:40:20;98651.03;;;-15.15;67.01
78986;BME280;68384;55.750;48.746;2024-01-15T03:41:24;98638.28;;;-15.18;66.35
78986;BME280;68384;55.750;48.746;2024-01-15T03:42:26;98641.59;;;-15.22;66.52
78986;BME280;68384;55.750;48.746;2024-01-15T03:43:28;98638.22;;;-15.21;67.35
78986;BME280;68384;55.750;48.746;2024-01-15T03:44:30;98644.97;;;-15.22;67.18
78986;BME280;68384;55.750;48.746;2024-01-15T03:45:32;98633.97;;;-15.22;66.47
78986;BME280;68384;55.750;48.746;2024-01-15T03:46:35;98639.00;;;-15.24;66.78
78986;BME280;68384;55.750;48.746;2024-01-15T03:47:37;98638.97;;;-15.25;66.13
78986;BME280;68384;55.750;48.746;2024-01-15T03:48:39;98629.63;;;-15.29;67.17
78986;BME280;68384;55.750;48.746;2024-01-15T03:49:41;98632.06;;;-15.34;66.79
78986;BME280;68384;55.750;48.746;2024-01-15T03:50:44;98643.81;;;-15.38;67.00
78986;BME280;68384;55.750;48.746;2024-01-15T03:51:46;98634.44;;;-15.42;66.46
78986;BME280;68384;55.750;48.746;2024-01-15T03:52:48;98620.88;;;-15.44;66.91
78986;BME280;68384;55.750;48.746;2024-01-15T03:53:50;98629.31;;;-15.45;66.84
78986;BME280;68384;55.750;48.746;2024-01-15T03:54:52;98617.41;;;-15.49;66.70
78986;BME280;68384;55.750;48.746;2024-01-15T03:55:54;98620.78;;;-15.50;67.39
78986;BME280;68384;55.750;48.746;2024-01-15T03:56:57;98631.75;;;-15.51;67.24
78986;BME280;68384;55.750;48.746;2024-01-15T03:57:59;98619.00;;;-15.54;67.58
78986;BME280;68384;55.750;48.746;2024-01-15T03:59:01;98635.06;;;-15.53;66.98
78986;BME280;68384;55.750;48.746;2024-01-15T04:00:04;98631.75;;;-15.51;67.03
78986;BME280;68384;55.750;48.746;2024-01-15T04:01:10;98641.06;;;-15.50;67.98
78986;BME280;68384;55.750;48.746;2024-01-15T04:02:12;98631.75;;;-15.51;67.11
78986;BME280;68384;55.750;48.746;2024-01-15T04:03:15;98640.25;;;-15.49;66.99
78986;BME280;68384;55.750;48.746;2024-01-15T04:04:17;98646.97;;;-15.51;66.83
78986;BME280;68384;55.750;48.746;2024-01-15T04:05:20;98638.56;;;-15.48;67.20
78986;BME280;68384;55.750;48.746;2024-01-15T04:06:22;98641.09;;;-15.48;66.73
78986;BME280;68384;55.750;48.746;2024-01-15T04:07:25;98651.25;;;-15.47;67.43
78986;BME280;68384;55.750;48.746;2024-01-15T04:08:27;98650.44;;;-15.46;66.91
78986;BME280;68384;55.750;48.746;2024-01-15T04:09:29;98649.59;;;-15.45;66.38
78986;BME280;68384;55.750;48.746;2024-01-15T04:10:31;98648.75;;;-15.45;66.54
78986;BME280;68384;55.750;48.746;2024-01-15T04:11:33;98648.81;;;-15.42;67.04
78986;BME280;68384;55.750;48.746;2024-01-15T04:12:35;98649.69;;;-15.42;66.43
78986;BME280;68384;55.750;48.746;2024-01-15T04:13:38;98653.94;;;-15.39;67.72
78986;BME280;68384;55.750;48.746;2024-01-15T04:14:43;98657.44;;;-15.34;67.66
78986;BME280;68384;55.750;48.746;2024-01-15T04:15:45;98649.84;;;-15.32;67.01
78986;BME280;68384;55.750;48.746;2024-01-15T04:16:47;98664.25;;;-15.31;66.63
78986;BME280;68384;55.750;48.746;2024-01-15T04:17:49;98669.38;;;-15.30;66.25
78986;BME280;68384;55.750;48.746;2024-01-15T04:18:51;98674.38;;;-15.33;66.43
78986;BME280;68384;55.750;48.746;2024-01-15T04:19:54;98671.00;;;-15.32;67.19
78986;BME280;68384;55.750;48.746;2024-01-15T04:20:57;98673.59;;;-15.30;66.55
78986;BME280;68384;55.750;48.746;2024-01-15T04:21:59;98680.38;;;-15.29;66.55
78986;BME280;68384;55.750;48.746;2024-01-15T04:23:01;98672.75;;;-15.28;66.94
78986;BME280;68384;55.750;48.746;2024-01-15T04:24:03;98664.25;;;-15.31;67.00
78986;BME280;68384;55.750;48.746;2024-01-15T04:25:06;98675.28;;;-15.29;66.43
78986;BME280;68384;55.750;48.746;2024-01-15T04:26:08;98677.81;;;-15.31;65.96
78986;BME280;68384;55.750;48.746;2024-01-15T04:27:10;98675.31;;;-15.28;66.71
78986;BME280;68384;55.750;48.746;2024-01-15T04:28:12;98683.78;;;-15.27;67.09
78986;BME280;68384;55.750;48.746;2024-01-15T04:29:14;98676.19;;;-15.26;66.97
78986;BME280;68384;55.750;48.746;2024-01-15T04:30:17;98676.25;;;-15.23;66.83
78986;BME280;68384;55.750;48.746;2024-01-15T04:31:25;98679.66;;;-15.22;67.06
78986;BME280;68384;55.750;48.746;2024-01-15T04:32:29;98673.78;;;-15.20;66.83
78986;BME280;68384;55.750;48.746;2024-01-15T04:33:31;98671.25;;;-15.20;66.81
78986;BME280;68384;55.750;48.746;2024-01-15T04:34:35;98684.03;;;-15.15;66.93
78986;BME280;68384;55.750;48.746;2024-01-15T04:35:38;98677.25;;;-15.16;66.70
78986;BME280;68384;55.750;48.746;2024-01-15T04:36:40;98678.09;;;-15.16;66.51
78986;BME280;68384;55.750;48.746;2024-01-15T04:37:43;98673.06;;;-15.14;66.28
78986;BME280;68384;55.750;48.746;2024-01-15T04:38:45;98678.97;;;-15.15;66.16
78986;BME280;68384;55.750;48.746;2024-01-15T04:39:47;98678.16;;;-15.14;66.95
78986;BME280;68384;55.750;48.746;2024-01-15T04:40:49;98672.25;;;-15.13;67.05
78986;BME280;68384;55.750;48.746;2024-01-15T04:41:52;98670.53;;;-15.14;66.03
78986;BME280;68384;55.750;48.746;2024-01-15T04:42:54;98674.78;;;-15.13;67.08
78986;BME280;68384;55.750;48.746;2024-01-15T04:43:56;98668.81;;;-15.15;66.50
78986;BME280;68384;55.750;48.746;2024-01-15T04:44:59;98668.78;;;-15.17;66.63
78986;BME280;68384;55.750;48.746;2024-01-15T04:46:01;98662.88;;;-15.16;67.15
78986;BME280;68384;55.750;48.746;2024-01-15T04:47:05;98656.88;;;-15.19;66.50
78986;BME280;68384;55.750;48.746;2024-01-15T04:48:07;98662.81;;;-15.19;67.38
78986;BME280;68384;55.750;48.746;2024-01-15T04:49:10;98655.13;;;-15.22;66.69
78986;BME280;68384;55.750;48.746;2024-01-15T04:50:12;98661.09;;;-15.20;66.13
78986;BME280;68384;55.750;48.746;2024-01-15T04:51:14;98656.00;;;-15.21;66.51
78986;BME280;68384;55.750;48.746;2024-01-15T04:52:17;98652.56;;;-15.23;66.58
78986;BME280;68384;55.750;48.746;2024-01-15T04:53:19;98661.81;;;-15.25;66.76
78986;BME280;68384;55.750;48.746;2024-01-15T04:54:21;98649.13;;;-15.25;67.10
78986;BME280;68384;55.750;48.746;2024-01-15T04:55:23;98653.31;;;-15.27;66.45
78986;BME280;68384;55.750;48.746;2024-01-15T04:56:25;98658.44;;;-15.26;66.62
78986;BME280;68384;55.750;48.746;2024-01-15T04:57:27;98654.16;;;-15.28;66.89
78986;BME280;68384;55.750;48.746;2024-01-15T04:58:29;98651.63;;;-15.28;67.55
78986;BME280;68384;55.750;48.746;2024-01-15T04:59:32;98639.75;;;-15.29;67.04
78986;BME280;68384;55.750;48.746;2024-01-15T05:00:34;98638.94;;;-15.28;67.08
78986;BME280;68384;55.750;48.746;2024-01-15T05:01:36;98648.13;;;-15.33;67.16
78986;BME280;68384;55.750;48.746;2024-01-15T05:02:38;98646.44;;;-15.33;67.04
78986;BME280;68384;55.750;48.746;2024-01-15T05:03:41;98648.13;;;-15.33;67.27
78986;BME280;68384;55.750;48.746;2024-01-15T05:04:43;98649.81;;;-15.34;66.74
78986;BME280;68384;55.750;48.746;2024-01-15T05:05:45;98640.47;;;-15.37;67.24
78986;BME280;68384;55.750;48.746;2024-01-15T05:06:48;98633.72;;;-15.34;67.44
78986;BME280;68384;55.750;48.746;2024-01-15T05:07:50;98639.63;;;-15.36;68.05
78986;BME280;68384;55.750;48.746;2024-01-15T05:08:53;98640.47;;;-15.37;67.46
78986;BME280;68384;55.750;48.746;2024-01-15T05:09:55;98645.59;;;-15.33;67.50
78986;BME280;68384;55.750;48.746;2024-01-15T05:10:57;98637.97;;;-15.33;67.25
78986;BME280;68384;55.750;48.746;2024-01-15T05:12:00;98633.72;;;-15.34;67.31
78986;BME280;68384;55.750;48.746;2024-01-15T05:13:02;98646.44;;;-15.33;67.47
78986;BME280;68384;55.750;48.746;2024-01-15T05:14:04;98649.84;;;-15.32;67.55
78986;BME280;68384;55.750;48.746;2024-01-15T05:15:06;98649.03;;;-15.31;67.60
78986;BME280;68384;55.750;48.746;2024-01-15T05:16:09;98643.13;;;-15.30;68.03
78986;BME280;68384;55.750;48.746;2024-01-15T05:17:11;98651.63;;;-15.28;67.36
78986;BME280;68384;55.750;48.746;2024-01-15T05:18:13;98645.69;;;-15.29;68.11
78986;BME280;68384;55.750;48.746;2024-01-15T05:19:15;98643.16;;;-15.27;67.68
78986;BME280;68384;55.750;48.746;2024-01-15T05:20:18;98644.03;;;-15.28;68.46
78986;BME280;68384;55.750;48.746;2024-01-15T05:21:20;98653.34;;;-15.26;67.74
78986;BME280;68384;55.750;48.746;2024-01-15T05:22:22;98653.41;;;-15.23;67.47
78986;BME280;68384;55.750;48.746;2024-01-15T05:23:26;98651.78;;;-15.21;68.19